createdAt,value
2018-10-18T00:02:22.935Z,57.98
2018-10-18T00:04:51.593Z,57.45
2018-10-18T00:07:20.260Z,58.07
2018-10-18T00:09:48.985Z,57.76
2018-10-18T00:12:17.763Z,57.98
2018-10-18T00:14:46.388Z,57.77
2018-10-18T00:17:20.054Z,58.17
2018-10-18T00:19:48.624Z,58.41
2018-10-18T00:22:17.397Z,57.77
2018-10-18T00:24:46.076Z,58.21
2018-10-18T00:27:14.841Z,58.26
2018-10-18T00:29:43.514Z,58.52
2018-10-18T00:32:12.278Z,58.67
2018-10-18T00:34:40.974Z,58.80
2018-10-18T00:37:09.647Z,58.67
2018-10-18T00:39:38.441Z,58.95
2018-10-18T00:42:07.181Z,59.31
2018-10-18T00:44:35.856Z,59.67
2018-10-18T00:47:05.072Z,59.77
2018-10-18T00:49:33.674Z,59.64
2018-10-18T00:52:02.314Z,59.71
2018-10-18T00:54:30.984Z,59.17
2018-10-18T00:56:59.626Z,59.53
2018-10-18T00:59:28.269Z,59.38
2018-10-18T01:01:57.251Z,59.95
2018-10-18T01:04:25.893Z,60.28
2018-10-18T01:06:54.598Z,60.12
2018-10-18T01:09:23.250Z,59.71
2018-10-18T01:11:52.123Z,60.57
2018-10-18T01:14:20.907Z,60.38
2018-10-18T01:16:53.709Z,60.70
2018-10-18T01:19:22.391Z,60.82
2018-10-18T01:21:50.997Z,60.48
2018-10-18T01:24:19.666Z,60.64
2018-10-18T01:26:48.296Z,60.96
2018-10-18T01:29:16.995Z,60.55
2018-10-18T01:31:45.645Z,60.37
2018-10-18T01:34:14.488Z,60.51
2018-10-18T01:36:43.147Z,60.60
2018-10-18T01:39:11.890Z,60.78
2018-10-18T01:41:41.087Z,61.22
2018-10-18T01:44:09.883Z,60.98
2018-10-18T01:46:38.666Z,61.07
2018-10-18T01:49:07.597Z,61.33
2018-10-18T01:51:36.526Z,61.71
2018-10-18T01:54:05.442Z,61.82
2018-10-18T01:56:34.030Z,61.90
2018-10-18T01:59:02.682Z,61.88
2018-10-18T02:01:31.460Z,61.74
2018-10-18T02:04:01.189Z,62.01
2018-10-18T02:06:29.913Z,61.67
2018-10-18T02:08:58.538Z,62.17
2018-10-18T02:11:27.345Z,62.41
2018-10-18T02:13:56.037Z,62.76
2018-10-18T02:16:24.673Z,62.68
2018-10-18T02:18:53.374Z,62.72
2018-10-18T02:21:22.132Z,62.60
2018-10-18T02:23:50.864Z,62.43
2018-10-18T02:26:19.554Z,62.39
2018-10-18T02:28:48.240Z,62.61
2018-10-18T02:31:17.045Z,62.56
2018-10-18T02:33:48.668Z,62.68
2018-10-18T02:36:17.367Z,63.39
2018-10-18T02:38:46.006Z,63.00
2018-10-18T02:41:14.673Z,62.41
2018-10-18T02:43:43.350Z,63.22
2018-10-18T02:46:12.146Z,63.54
2018-10-18T02:48:40.889Z,63.09
2018-10-18T02:51:09.495Z,63.36
2018-10-18T02:53:38.161Z,63.18
2018-10-18T02:56:07.330Z,63.58
2018-10-18T02:58:36.068Z,63.35
2018-10-18T03:01:04.817Z,64.31
2018-10-18T03:03:33.530Z,63.80
2018-10-18T03:06:02.293Z,63.84
2018-10-18T03:08:30.962Z,64.63
2018-10-18T03:10:59.721Z,64.51
2018-10-18T03:13:28.430Z,65.40
2018-10-18T03:15:57.236Z,65.17
2018-10-18T03:18:26.334Z,65.76
2018-10-18T03:20:55.088Z,65.97
2018-10-18T03:23:23.829Z,66.37
2018-10-18T03:25:52.562Z,66.49
2018-10-18T03:28:21.278Z,66.61
2018-10-18T03:30:50.013Z,66.77
2018-10-18T03:33:18.829Z,66.16
2018-10-18T03:35:47.584Z,66.27
2018-10-18T03:38:16.324Z,66.69
2018-10-18T03:40:45.006Z,67.00
2018-10-18T03:43:13.825Z,66.38
2018-10-18T03:45:42.665Z,67.46
2018-10-18T03:48:11.370Z,67.01
2018-10-18T03:50:40.078Z,67.18
2018-10-18T03:53:08.777Z,67.49
2018-10-18T03:55:37.590Z,67.73
2018-10-18T03:58:06.429Z,68.06
2018-10-18T04:00:35.335Z,67.96
2018-10-18T04:03:04.083Z,68.05
2018-10-18T04:05:32.792Z,68.18
2018-10-18T04:08:01.962Z,68.01
2018-10-18T04:10:30.641Z,68.49
2018-10-18T04:12:59.290Z,68.42
2018-10-18T04:15:27.892Z,68.58
2018-10-18T04:17:56.602Z,68.90
2018-10-18T04:20:25.229Z,69.14
2018-10-18T04:22:53.897Z,69.56
2018-10-18T04:25:22.624Z,70.04
2018-10-18T04:27:51.841Z,69.26
2018-10-18T04:30:20.573Z,69.57
2018-10-18T04:32:49.213Z,69.34
2018-10-18T04:35:17.897Z,69.02
2018-10-18T04:37:46.802Z,69.57
2018-10-18T04:40:15.436Z,69.42
2018-10-18T04:42:44.391Z,69.90
2018-10-18T04:45:13.073Z,70.51
2018-10-18T04:47:41.888Z,69.80
2018-10-18T04:50:10.670Z,70.24
2018-10-18T04:52:39.283Z,70.58
2018-10-18T04:55:08.299Z,69.46
2018-10-18T04:57:36.817Z,69.21
2018-10-18T05:00:09.130Z,69.55
2018-10-18T05:02:37.936Z,68.54
2018-10-18T05:05:17.819Z,68.75
2018-10-18T05:07:46.793Z,68.55
2018-10-18T05:10:15.624Z,68.64
2018-10-18T05:12:44.338Z,69.15
2018-10-18T05:15:12.880Z,68.19
2018-10-18T05:17:41.815Z,68.87
2018-10-18T05:20:10.487Z,68.24
2018-10-18T05:22:39.134Z,68.29
2018-10-18T05:25:07.962Z,68.07
2018-10-18T05:27:36.537Z,67.36
2018-10-18T05:30:08.863Z,67.11
2018-10-18T05:32:37.866Z,66.86
2018-10-18T05:35:06.845Z,67.10
2018-10-18T05:37:35.643Z,66.23
2018-10-18T05:40:04.730Z,65.14
2018-10-18T05:42:33.386Z,64.21
2018-10-18T05:45:02.222Z,64.13
2018-10-18T05:47:30.903Z,63.98
2018-10-18T05:49:59.509Z,63.27
2018-10-18T05:52:28.253Z,62.95
2018-10-18T05:54:57.030Z,62.84
2018-10-18T05:57:25.877Z,61.89
2018-10-18T05:59:54.558Z,61.22
2018-10-18T06:02:23.511Z,61.46
2018-10-18T06:04:52.289Z,61.23
2018-10-18T06:07:20.993Z,60.06
2018-10-18T06:09:49.716Z,59.57
2018-10-18T06:12:18.540Z,58.77
2018-10-18T06:14:47.718Z,59.11
2018-10-18T06:17:16.513Z,59.05
2018-10-18T06:19:45.508Z,58.20
2018-10-18T06:22:14.167Z,57.94
2018-10-18T06:24:43.070Z,56.98
2018-10-18T06:27:11.862Z,55.78
2018-10-18T06:29:40.870Z,56.09
2018-10-18T06:32:09.574Z,54.91
2018-10-18T06:34:38.529Z,54.31
2018-10-18T06:37:07.819Z,53.95
2018-10-18T06:39:36.409Z,53.52
2018-10-18T06:42:05.285Z,52.29
2018-10-18T06:44:34.051Z,51.83
2018-10-18T06:47:03.204Z,51.49
2018-10-18T06:49:32.200Z,51.82
2018-10-18T06:52:01.047Z,51.82
2018-10-18T06:54:29.970Z,51.58
2018-10-18T06:56:58.737Z,51.98
2018-10-18T06:59:27.474Z,50.55
2018-10-18T07:01:56.177Z,50.03
2018-10-18T07:04:24.876Z,49.40
2018-10-18T07:06:53.539Z,49.85
2018-10-18T07:09:22.269Z,49.22
2018-10-18T07:11:51.588Z,49.37
2018-10-18T07:14:20.685Z,49.52
2018-10-18T07:16:49.747Z,48.44
2018-10-18T07:19:18.457Z,48.13
2018-10-18T07:21:47.225Z,47.45
2018-10-18T07:24:15.982Z,47.84
2018-10-18T07:26:44.649Z,47.67
2018-10-18T07:29:13.353Z,47.39
2018-10-18T07:31:42.076Z,47.33
2018-10-18T07:34:11.312Z,46.75
2018-10-18T07:36:39.961Z,45.74
2018-10-18T07:39:11.884Z,46.40
2018-10-18T07:41:40.701Z,45.81
2018-10-18T07:44:09.896Z,45.39
2018-10-18T07:46:38.598Z,44.61
2018-10-18T07:49:07.545Z,43.04
2018-10-18T07:51:36.599Z,43.06
2018-10-18T07:54:05.593Z,43.77
2018-10-18T07:56:34.311Z,43.04
2018-10-18T07:59:03.025Z,43.01
2018-10-18T08:01:32.389Z,42.74
2018-10-18T08:04:01.422Z,40.86
2018-10-18T08:06:30.113Z,41.96
2018-10-18T08:08:58.928Z,41.30
2018-10-18T08:11:27.986Z,41.39
2018-10-18T08:13:56.752Z,40.68
2018-10-18T08:16:25.768Z,39.67
2018-10-18T08:18:54.543Z,40.44
2018-10-18T08:21:23.278Z,39.40
2018-10-18T08:23:52.285Z,39.71
2018-10-18T08:26:21.362Z,39.95
2018-10-18T08:28:50.068Z,39.61
2018-10-18T08:31:19.173Z,39.13
2018-10-18T08:33:48.182Z,39.69
2018-10-18T08:36:16.868Z,38.95
2018-10-18T08:38:45.575Z,38.93
2018-10-18T08:41:14.480Z,38.54
2018-10-18T08:43:43.253Z,38.51
2018-10-18T08:46:11.926Z,36.91
2018-10-18T08:48:40.685Z,37.29
2018-10-18T08:51:09.370Z,36.40
2018-10-18T08:53:38.501Z,37.71
2018-10-18T08:56:07.550Z,37.94
2018-10-18T08:58:36.282Z,37.11
2018-10-18T09:01:05.255Z,36.82
2018-10-18T09:03:34.239Z,36.63
2018-10-18T09:06:02.945Z,36.62
2018-10-18T09:08:31.796Z,36.39
2018-10-18T09:11:00.556Z,35.61
2018-10-18T09:13:29.277Z,35.57
2018-10-18T09:15:58.277Z,34.33
2018-10-18T09:18:26.931Z,34.23
2018-10-18T09:20:55.641Z,33.28
2018-10-18T09:23:24.876Z,33.47
2018-10-18T09:25:53.877Z,33.91
2018-10-18T09:28:22.566Z,34.01
2018-10-18T09:30:51.341Z,34.05
2018-10-18T09:33:20.048Z,34.98
2018-10-18T09:35:48.814Z,35.25
2018-10-18T09:38:17.608Z,35.32
2018-10-18T09:40:46.314Z,35.43
2018-10-18T09:43:15.043Z,35.23
2018-10-18T09:45:43.951Z,34.51
2018-10-18T09:48:12.727Z,35.81
2018-10-18T09:50:41.398Z,37.20
2018-10-18T09:53:10.136Z,35.52
2018-10-18T09:55:38.931Z,33.71
2018-10-18T09:58:07.703Z,33.42
2018-10-18T10:00:41.509Z,34.34
2018-10-18T10:03:11.649Z,33.61
2018-10-18T10:05:40.482Z,33.87
2018-10-18T10:08:09.223Z,35.26
2018-10-18T10:10:38.033Z,36.60
2018-10-18T10:13:07.556Z,34.67
2018-10-18T10:15:36.181Z,34.83
2018-10-18T10:18:05.128Z,35.77
2018-10-18T10:20:34.199Z,36.47
2018-10-18T10:23:02.977Z,36.32
2018-10-18T10:25:31.714Z,36.30
2018-10-18T10:28:00.509Z,36.49
2018-10-18T10:30:29.332Z,36.22
2018-10-18T10:32:58.090Z,36.91
2018-10-18T10:35:26.850Z,36.49
2018-10-18T10:37:55.634Z,36.33
2018-10-18T10:40:24.384Z,36.52
2018-10-18T10:42:53.329Z,35.36
2018-10-18T10:45:22.252Z,35.99
2018-10-18T10:47:51.772Z,34.86
2018-10-18T10:50:20.834Z,33.45
2018-10-18T10:52:49.501Z,35.02
2018-10-18T10:55:18.517Z,34.77
2018-10-18T10:57:47.320Z,34.63
2018-10-18T11:00:24.857Z,35.01
2018-10-18T11:02:53.658Z,34.34
2018-10-18T11:05:22.535Z,34.68
2018-10-18T11:07:51.301Z,34.32
2018-10-18T11:10:20.091Z,33.89
2018-10-18T11:12:49.201Z,34.12
2018-10-18T11:15:18.273Z,34.88
2018-10-18T11:17:47.278Z,34.49
2018-10-18T11:20:16.091Z,35.09
2018-10-18T11:22:45.057Z,33.68
2018-10-18T11:25:13.801Z,35.47
2018-10-18T11:27:42.452Z,35.16
2018-10-18T11:30:11.703Z,34.81
2018-10-18T11:32:40.371Z,34.58
2018-10-18T11:35:09.402Z,34.32
2018-10-18T11:37:38.324Z,33.47
2018-10-18T11:40:07.665Z,33.70
2018-10-18T11:42:36.579Z,33.73
2018-10-18T11:45:05.741Z,34.42
2018-10-18T11:47:34.446Z,34.87
2018-10-18T11:50:03.152Z,34.80
2018-10-18T11:52:32.106Z,34.67
2018-10-18T11:55:00.936Z,33.79
2018-10-18T11:57:29.683Z,34.24
2018-10-18T11:59:58.440Z,34.14
2018-10-18T12:02:27.400Z,34.42
2018-10-18T12:04:56.379Z,34.50
2018-10-18T12:07:25.381Z,35.92
2018-10-18T12:09:54.118Z,35.15
2018-10-18T12:12:22.847Z,36.52
2018-10-18T12:14:51.641Z,36.31
2018-10-18T12:17:20.412Z,35.32
2018-10-18T12:19:49.240Z,36.39
2018-10-18T12:22:18.055Z,35.78
2018-10-18T12:24:46.832Z,35.75
2018-10-18T12:27:15.664Z,35.20
2018-10-18T12:29:44.470Z,36.07
2018-10-18T12:32:13.242Z,35.86
2018-10-18T12:34:42.120Z,36.24
2018-10-18T12:37:10.966Z,36.15
2018-10-18T12:39:40.457Z,35.49
2018-10-18T12:42:09.733Z,37.27
2018-10-18T12:44:41.404Z,36.89
2018-10-18T12:47:11.768Z,36.98
2018-10-18T12:49:41.632Z,36.61
2018-10-18T12:52:12.416Z,36.55
2018-10-18T12:54:41.409Z,36.42
2018-10-18T12:57:12.194Z,36.94
2018-10-18T12:59:40.999Z,36.90
2018-10-18T13:02:09.819Z,36.73
2018-10-18T13:04:38.772Z,36.75
2018-10-18T13:07:07.919Z,36.60
2018-10-18T13:09:36.740Z,35.67
2018-10-18T13:12:06.308Z,36.38
2018-10-18T13:14:35.082Z,36.04
2018-10-18T13:17:03.935Z,36.57
2018-10-18T13:19:32.688Z,37.88
2018-10-18T13:22:01.812Z,37.32
2018-10-18T13:24:30.651Z,37.07
2018-10-18T13:26:59.426Z,36.85
2018-10-18T13:29:28.523Z,37.01
2018-10-18T13:31:57.456Z,37.10
2018-10-18T13:34:26.353Z,37.04
2018-10-18T13:36:55.370Z,36.70
2018-10-18T13:39:24.121Z,37.15
2018-10-18T13:41:52.954Z,37.24
2018-10-18T13:44:22.088Z,37.00
2018-10-18T13:46:50.890Z,37.10
2018-10-18T13:49:19.642Z,38.07
2018-10-18T13:51:48.804Z,37.87
2018-10-18T13:54:17.824Z,37.25
2018-10-18T13:56:46.508Z,37.53
2018-10-18T13:59:26.295Z,36.64
2018-10-18T14:01:55.013Z,37.18
2018-10-18T14:04:23.947Z,36.99
2018-10-18T14:06:52.777Z,37.17
2018-10-18T14:09:21.574Z,37.75
2018-10-18T14:11:50.405Z,37.71
2018-10-18T14:14:19.207Z,38.00
2018-10-18T14:16:47.901Z,37.63
2018-10-18T14:19:16.645Z,38.39
2018-10-18T14:21:45.858Z,38.35
2018-10-18T14:24:14.763Z,38.50
2018-10-18T14:26:43.576Z,37.90
2018-10-18T14:29:12.591Z,38.23
2018-10-18T14:31:42.089Z,38.57
2018-10-18T14:34:11.358Z,38.50
2018-10-18T14:36:40.131Z,38.77
2018-10-18T14:39:09.694Z,38.69
2018-10-18T14:41:38.839Z,38.71
2018-10-18T14:44:07.683Z,38.76
2018-10-18T14:46:36.576Z,38.81
2018-10-18T14:49:05.404Z,40.55
2018-10-18T14:51:34.462Z,43.29
2018-10-18T14:54:03.216Z,44.60
2018-10-18T14:56:31.882Z,45.19
2018-10-18T14:59:00.699Z,45.66
2018-10-18T15:01:29.450Z,46.24
2018-10-18T15:03:58.179Z,45.91
2018-10-18T15:06:26.964Z,46.48
2018-10-18T15:08:55.724Z,47.04
2018-10-18T15:11:24.464Z,46.82
2018-10-18T15:13:53.204Z,46.95
2018-10-18T15:16:21.899Z,47.18
2018-10-18T15:18:50.636Z,47.98
2018-10-18T15:21:19.339Z,48.50
2018-10-18T15:23:48.059Z,48.70
2018-10-18T15:26:16.905Z,48.54
2018-10-18T15:28:45.591Z,48.98
2018-10-18T15:31:14.277Z,49.86
2018-10-18T15:33:42.984Z,49.40
2018-10-18T15:36:11.770Z,50.16
2018-10-18T15:38:40.623Z,50.25
2018-10-18T15:41:09.237Z,50.72
2018-10-18T15:43:37.835Z,50.24
2018-10-18T15:46:06.725Z,50.21
2018-10-18T15:48:35.491Z,50.66
2018-10-18T15:51:04.258Z,50.56
2018-10-18T15:53:32.989Z,50.57
2018-10-18T15:56:01.760Z,50.91
2018-10-18T15:58:30.511Z,51.34
2018-10-18T16:00:59.209Z,51.33
2018-10-18T16:03:27.906Z,52.14
2018-10-18T16:05:56.660Z,52.32
2018-10-18T16:08:25.848Z,52.17
2018-10-18T16:10:54.670Z,52.10
2018-10-18T16:13:23.580Z,52.51
2018-10-18T16:15:54.468Z,52.81
2018-10-18T16:18:23.382Z,52.97
2018-10-18T16:20:52.296Z,52.42
2018-10-18T16:23:21.249Z,53.30
2018-10-18T16:25:50.148Z,52.96
2018-10-18T16:28:18.887Z,53.83
2018-10-18T16:30:47.991Z,53.97
2018-10-18T16:33:17.344Z,54.33
2018-10-18T16:35:46.273Z,54.24
2018-10-18T16:38:15.325Z,54.33
2018-10-18T16:40:44.067Z,53.62
2018-10-18T16:43:13.285Z,53.97
2018-10-18T16:45:42.106Z,53.95
2018-10-18T16:48:11.213Z,52.83
2018-10-18T16:50:40.121Z,51.57
2018-10-18T16:53:09.242Z,50.47
2018-10-18T16:55:38.137Z,49.36
2018-10-18T16:58:06.956Z,48.72
2018-10-18T17:00:35.770Z,48.03
2018-10-18T17:03:04.596Z,48.47
2018-10-18T17:05:33.428Z,47.85
2018-10-18T17:08:02.521Z,48.85
2018-10-18T17:10:31.424Z,48.07
2018-10-18T17:13:00.388Z,49.10
2018-10-18T17:15:29.283Z,49.80
2018-10-18T17:17:58.171Z,48.97
2018-10-18T17:20:27.204Z,49.32
2018-10-18T17:22:56.018Z,49.91
2018-10-18T17:25:25.074Z,49.60
2018-10-18T17:27:54.360Z,50.49
2018-10-18T17:30:23.243Z,50.96
2018-10-18T17:32:52.432Z,50.99
2018-10-18T17:35:21.390Z,50.65
2018-10-18T17:37:50.275Z,51.40
2018-10-18T17:40:19.975Z,50.89
2018-10-18T17:42:48.763Z,51.37
2018-10-18T17:45:17.616Z,51.78
2018-10-18T17:47:46.490Z,52.37
2018-10-18T17:50:15.345Z,51.84
2018-10-18T17:52:44.041Z,52.74
2018-10-18T17:55:12.809Z,52.85
2018-10-18T17:57:41.711Z,53.28
2018-10-18T18:00:12.261Z,53.05
2018-10-18T18:02:41.330Z,53.91
2018-10-18T18:05:10.938Z,53.87
2018-10-18T18:07:39.785Z,55.00
2018-10-18T18:10:13.303Z,55.13
2018-10-18T18:12:42.094Z,55.11
2018-10-18T18:15:11.223Z,56.34
2018-10-18T18:17:40.403Z,55.78
2018-10-18T18:20:10.494Z,56.10
2018-10-18T18:22:39.355Z,56.71
2018-10-18T18:25:10.079Z,57.41
2018-10-18T18:27:39.120Z,57.63
2018-10-18T18:30:14.345Z,58.93
2018-10-18T18:32:43.550Z,58.50
2018-10-18T18:35:12.287Z,58.69
2018-10-18T18:37:41.290Z,58.65
2018-10-18T18:40:10.860Z,59.56
2018-10-18T18:42:40.384Z,59.36
2018-10-18T18:45:14.382Z,59.54
2018-10-18T18:47:43.089Z,60.29
2018-10-18T18:50:11.902Z,60.04
2018-10-18T18:52:40.954Z,60.48
2018-10-18T18:55:10.932Z,60.55
2018-10-18T18:57:39.765Z,60.65
2018-10-18T19:00:12.390Z,60.93
2018-10-18T19:02:41.799Z,60.97
2018-10-18T19:05:10.829Z,61.35
2018-10-18T19:07:40.064Z,61.61
2018-10-18T19:10:09.194Z,61.85
2018-10-18T19:12:37.995Z,61.50
2018-10-18T19:15:08.271Z,62.11
2018-10-18T19:17:37.362Z,62.69
2018-10-18T19:20:06.482Z,62.90
2018-10-18T19:22:35.303Z,63.56
2018-10-18T19:25:04.137Z,63.40
2018-10-18T19:27:32.956Z,64.06
2018-10-18T19:30:01.805Z,64.32
2018-10-18T19:32:30.658Z,64.75
2018-10-18T19:34:59.391Z,64.54
2018-10-18T19:37:28.596Z,64.38
2018-10-18T19:39:57.354Z,63.78
2018-10-18T19:42:26.172Z,64.16
2018-10-18T19:44:54.934Z,64.37
2018-10-18T19:47:23.670Z,64.23
2018-10-18T19:49:52.554Z,64.41
2018-10-18T19:52:21.506Z,64.49
2018-10-18T19:54:50.422Z,64.16
2018-10-18T19:57:19.097Z,63.90
2018-10-18T19:59:47.898Z,64.17
2018-10-18T20:02:16.606Z,63.72
2018-10-18T20:04:45.579Z,63.55
2018-10-18T20:07:14.271Z,64.13
2018-10-18T20:09:43.011Z,64.20
2018-10-18T20:12:12.170Z,64.33
2018-10-18T20:14:40.755Z,64.18
2018-10-18T20:17:09.549Z,64.67
2018-10-18T20:19:38.478Z,65.00
2018-10-18T20:22:10.377Z,65.22
2018-10-18T20:24:39.079Z,64.92
2018-10-18T20:27:08.457Z,65.57
2018-10-18T20:29:37.435Z,65.84
2018-10-18T20:32:06.589Z,65.30
2018-10-18T20:34:35.285Z,66.13
2018-10-18T20:37:04.135Z,65.53
2018-10-18T20:39:32.832Z,65.58
2018-10-18T20:42:01.549Z,66.05
2018-10-18T20:44:30.333Z,65.35
2018-10-18T20:46:59.224Z,66.06
2018-10-18T20:49:27.838Z,65.66
2018-10-18T20:51:56.643Z,65.44
2018-10-18T20:54:25.468Z,66.38
2018-10-18T20:56:54.181Z,66.48
2018-10-18T20:59:23.541Z,66.19
2018-10-18T21:01:52.579Z,65.68
2018-10-18T21:04:21.326Z,66.17
2018-10-18T21:06:51.205Z,66.25
2018-10-18T21:09:19.939Z,66.59
2018-10-18T21:11:48.639Z,66.43
2018-10-18T21:14:17.333Z,66.14
2018-10-18T21:16:45.975Z,66.88
2018-10-18T21:19:21.250Z,67.40
2018-10-18T21:21:49.957Z,67.61
2018-10-18T21:24:18.687Z,67.53
2018-10-18T21:26:48.756Z,67.26
2018-10-18T21:29:17.649Z,67.12
2018-10-18T21:31:46.386Z,67.59
2018-10-18T21:34:15.129Z,68.44
2018-10-18T21:36:43.770Z,67.79
2018-10-18T21:39:12.666Z,68.66
2018-10-18T21:41:41.261Z,69.07
2018-10-18T21:44:09.990Z,69.62
2018-10-18T21:46:38.704Z,69.54
2018-10-18T21:49:07.402Z,69.62
2018-10-18T21:51:36.126Z,70.16
2018-10-18T21:54:05.337Z,70.95
2018-10-18T21:56:34.135Z,70.61
2018-10-18T21:59:02.857Z,71.01
2018-10-18T22:01:31.674Z,71.08
2018-10-18T22:04:00.362Z,71.78
2018-10-18T22:06:29.013Z,71.84
2018-10-18T22:08:57.736Z,71.21
2018-10-18T22:11:26.509Z,71.70
2018-10-18T22:13:55.223Z,71.33
2018-10-18T22:16:23.937Z,71.10
2018-10-18T22:18:52.879Z,71.84
2018-10-18T22:21:21.598Z,71.58
2018-10-18T22:23:50.277Z,71.62
2018-10-18T22:26:18.915Z,71.68
2018-10-18T22:28:47.616Z,71.28
2018-10-18T22:31:16.306Z,72.55
2018-10-18T22:33:45.049Z,72.04
2018-10-18T22:36:13.716Z,71.90
2018-10-18T22:38:42.393Z,72.21
2018-10-18T22:41:12.809Z,72.61
2018-10-18T22:43:42.501Z,72.16
2018-10-18T22:46:11.334Z,71.88
2018-10-18T22:48:40.012Z,72.62
2018-10-18T22:51:08.695Z,71.83
2018-10-18T22:53:37.274Z,72.48
2018-10-18T22:56:05.985Z,72.81
2018-10-18T22:58:34.629Z,73.14
2018-10-18T23:01:03.386Z,72.49
2018-10-18T23:03:32.025Z,72.06
2018-10-18T23:06:00.718Z,72.62
2018-10-18T23:08:29.352Z,72.41
2018-10-18T23:10:58.006Z,72.60
2018-10-18T23:13:26.624Z,72.45
2018-10-18T23:15:55.305Z,72.40
2018-10-18T23:18:23.954Z,72.49
2018-10-18T23:20:52.788Z,73.13
2018-10-18T23:23:21.839Z,73.05
2018-10-18T23:25:50.566Z,74.00
2018-10-18T23:28:19.260Z,73.84
2018-10-18T23:30:48.017Z,73.42
2018-10-18T23:33:16.706Z,73.71
2018-10-18T23:35:45.352Z,73.66
2018-10-18T23:38:14.000Z,74.18
2018-10-18T23:40:42.687Z,73.12
2018-10-18T23:43:11.375Z,73.45
2018-10-18T23:45:39.985Z,73.69
2018-10-18T23:48:08.750Z,73.89
2018-10-18T23:50:37.351Z,74.36
2018-10-18T23:53:06.193Z,73.79
2018-10-18T23:55:34.880Z,73.78
2018-10-18T23:58:03.501Z,73.95
